Time;durP1;ratioP1;P1;durP2;ratioP2;P2;SDS_P1;SDS_P2;PMS_P1;PMS_P2;Temp;Humidity;BMP_temperature;BMP_pressure;BME280_temperature;BME280_humidity;BME280_pressure;Samples;Min_cycle;Max_cycle;Signal;HPM_P1;HPM_P2
2021/12/12 00:01:21;;;;;;;14.27;9.98;;;4.20;80.80;;;;;;5039336;28;20105;-67
2021/12/12 00:03:52;;;;;;;13.32;9.73;;;4.20;80.90;;;;;;5056066;28;20765;-67
2021/12/12 00:06:28;;;;;;;11.82;8.48;;;4.20;80.90;;;;;;5057224;28;20178;-67
2021/12/12 00:08:58;;;;;;;11.18;8.18;;;4.20;81.00;;;;;;5054901;28;20043;-67
2021/12/12 00:11:30;;;;;;;12.27;8.48;;;4.20;81.10;;;;;;5054518;28;20090;-68
2021/12/12 00:14:18;;;;;;;11.60;8.50;;;4.20;81.10;;;;;;5053115;28;20162;-68
2021/12/12 00:16:46;;;;;;;12.50;9.10;;;4.20;81.20;;;;;;5025388;28;20453;-67
2021/12/12 00:19:12;;;;;;;9.52;7.70;;;4.20;81.10;;;;;;5057766;28;20033;-68
2021/12/12 00:21:40;;;;;;;11.38;8.25;;;4.20;81.10;;;;;;5058364;28;20032;-68
2021/12/12 00:24:09;;;;;;;10.85;8.25;;;4.20;81.20;;;;;;5054610;28;20037;-68
2021/12/12 00:26:35;;;;;;;10.10;7.80;;;4.20;81.30;;;;;;5055978;28;20491;-67
2021/12/12 00:29:01;;;;;;;10.20;7.47;;;4.20;81.20;;;;;;5054932;28;20112;-67
2021/12/12 00:31:27;;;;;;;9.45;6.93;;;4.20;81.10;;;;;;5055196;28;20052;-67
2021/12/12 00:33:54;;;;;;;7.95;6.63;;;4.20;81.10;;;;;;5055796;28;20021;-67
2021/12/12 00:36:21;;;;;;;8.43;6.75;;;4.20;81.10;;;;;;5059204;28;20490;-67
2021/12/12 00:38:53;;;;;;;10.40;6.30;;;4.20;81.10;;;;;;5054145;28;20074;-66
2021/12/12 00:41:33;;;;;;;8.75;6.55;;;4.20;81.10;;;;;;5053646;28;20040;-67
2021/12/12 00:44:01;;;;;;;9.20;6.90;;;4.20;81.10;;;;;;5052667;28;20040;-67
2021/12/12 00:46:29;;;;;;;9.45;7.03;;;4.20;81.00;;;;;;5057212;28;20079;-66
2021/12/12 00:48:55;;;;;;;10.15;7.13;;;4.20;80.90;;;;;;5055041;28;20399;-66
2021/12/12 00:51:41;;;;;;;10.00;7.03;;;4.20;80.90;;;;;;5055492;28;20033;-67
2021/12/12 00:54:09;;;;;;;8.57;7.03;;;4.20;80.90;;;;;;5054787;28;20068;-66
2021/12/12 00:56:35;;;;;;;10.00;7.00;;;4.20;80.90;;;;;;5056043;28;20035;-67
2021/12/12 00:59:01;;;;;;;9.27;7.30;;;4.30;80.90;;;;;;5055686;28;20036;-66
2021/12/12 01:01:35;;;;;;;9.95;7.60;;;4.20;80.80;;;;;;5054499;28;20025;-67
2021/12/12 01:04:11;;;;;;;9.15;6.68;;;4.20;80.70;;;;;;5057368;28;20040;-68
2021/12/12 01:06:36;;;;;;;9.07;7.30;;;4.20;80.70;;;;;;5058017;28;20403;-66
2021/12/12 01:09:07;;;;;;;8.48;7.07;;;4.20;80.80;;;;;;5058854;28;20029;-67
2021/12/12 01:11:38;;;;;;;8.23;7.13;;;4.20;80.80;;;;;;5057953;28;20028;-67
2021/12/12 01:14:12;;;;;;;9.38;7.00;;;4.20;80.70;;;;;;5056155;28;20025;-67
2021/12/12 01:17:02;;;;;;;8.65;6.63;;;4.20;80.60;;;;;;5058897;28;20033;-68
2021/12/12 01:19:36;;;;;;;12.38;8.63;;;4.20;80.50;;;;;;5057898;28;20071;-66
2021/12/12 01:22:06;;;;;;;12.82;8.55;;;4.20;80.40;;;;;;5058126;28;20836;-67
2021/12/12 01:24:40;;;;;;;13.30;9.65;;;4.20;80.50;;;;;;5056680;28;20087;-67
2021/12/12 01:27:08;;;;;;;12.75;8.55;;;4.10;80.40;;;;;;5060382;28;20300;-67
2021/12/12 01:29:35;;;;;;;10.45;7.82;;;4.10;80.40;;;;;;5057278;28;20040;-65
2021/12/12 01:32:04;;;;;;;11.85;8.25;;;4.10;80.40;;;;;;5056501;28;20095;-68
2021/12/12 01:34:31;;;;;;;11.93;8.55;;;4.10;80.40;;;;;;5055152;28;20039;-68
2021/12/12 01:37:34;;;;;;;12.82;9.32;;;4.10;80.60;;;;;;5057513;28;20914;-67
2021/12/12 01:39:58;;;;;;;13.48;8.68;;;4.10;80.60;;;;;;5059143;28;20539;-67
2021/12/12 01:42:31;;;;;;;15.20;9.10;;;4.10;80.60;;;;;;5059102;28;20033;-66
2021/12/12 01:45:15;;;;;;;13.80;9.40;;;4.10;81.40;;;;;;5057151;28;20093;-68
2021/12/12 01:48:00;;;;;;;11.93;8.52;;;4.10;80.60;;;;;;5040227;28;20033;-67
2021/12/12 01:50:39;;;;;;;10.73;8.32;;;4.10;80.40;;;;;;5055095;28;20536;-68
2021/12/12 01:53:08;;;;;;;13.35;8.95;;;4.10;80.40;;;;;;5056685;28;20044;-67
2021/12/12 01:55:39;;;;;;;12.57;8.50;;;4.00;80.40;;;;;;5059136;28;20487;-68
2021/12/12 01:58:13;;;;;;;13.27;8.52;;;4.00;80.40;;;;;;5055546;28;20040;-67
2021/12/12 02:00:44;;;;;;;13.97;8.87;;;4.00;80.50;;;;;;5058426;28;20048;-66
2021/12/12 02:03:12;;;;;;;12.65;8.77;;;4.00;80.60;;;;;;5059420;28;20552;-68
2021/12/12 02:05:39;;;;;;;11.38;8.57;;;4.00;80.70;;;;;;5057257;28;20025;-67
2021/12/12 02:08:13;;;;;;;11.90;8.65;;;3.90;80.70;;;;;;5056776;28;20033;-68
2021/12/12 02:11:01;;;;;;;12.55;8.90;;;3.90;80.70;;;;;;5057355;28;20032;-67
2021/12/12 02:13:30;;;;;;;11.63;7.68;;;3.90;81.80;;;;;;5054518;28;20040;-67
2021/12/12 02:16:00;;;;;;;13.63;8.98;;;3.90;81.00;;;;;;5058770;28;20053;-67
2021/12/12 02:18:35;;;;;;;11.25;8.68;;;3.90;81.10;;;;;;5057568;28;20696;-68
2021/12/12 02:21:22;;;;;;;13.38;9.63;;;3.90;81.30;;;;;;5059223;28;20044;-67
2021/12/12 02:37:24;;;;;;;12.13;8.02;;;3.80;81.40;;;;;;5052913;28;20048;-68
2021/12/12 02:39:49;;;;;;;11.90;8.43;;;3.80;81.40;;;;;;5054697;28;20031;-68
2021/12/12 02:42:18;;;;;;;12.60;8.60;;;3.80;81.50;;;;;;5056780;28;20037;-67
2021/12/12 02:44:44;;;;;;;11.57;8.25;;;3.90;81.60;;;;;;5056543;28;20577;-67
2021/12/12 02:47:17;;;;;;;11.90;8.18;;;3.90;81.60;;;;;;5055102;28;20580;-68
2021/12/12 02:52:22;;;;;;;11.23;7.70;;;3.90;81.50;;;;;;5053712;28;20574;-67
2021/12/12 02:54:47;;;;;;;12.98;8.80;;;3.90;81.40;;;;;;5053598;28;20492;-67
2021/12/12 02:57:15;;;;;;;13.07;8.85;;;3.90;81.40;;;;;;5055956;28;20113;-68
2021/12/12 02:59:45;;;;;;;11.32;8.30;;;4.00;81.40;;;;;;5054643;28;20060;-68
2021/12/12 03:02:14;;;;;;;11.20;8.48;;;4.00;81.40;;;;;;5054988;28;20036;-68
2021/12/12 03:04:41;;;;;;;12.65;8.68;;;4.00;81.40;;;;;;5056355;28;20036;-67
2021/12/12 03:07:09;;;;;;;11.10;8.45;;;4.00;81.30;;;;;;5058592;28;20086;-67
2021/12/12 03:09:57;;;;;;;12.20;8.18;;;4.00;81.30;;;;;;5056047;28;20525;-67
2021/12/12 03:12:31;;;;;;;11.48;8.27;;;4.10;81.30;;;;;;5055711;28;20044;-67
2021/12/12 03:15:00;;;;;;;12.35;8.25;;;4.00;81.30;;;;;;5055402;28;20095;-68
2021/12/12 03:17:26;;;;;;;12.57;8.40;;;4.00;81.10;;;;;;5054775;28;20037;-68
2021/12/12 03:20:01;;;;;;;12.30;8.63;;;4.00;81.10;;;;;;5056563;28;20040;-67
2021/12/12 03:22:27;;;;;;;12.02;8.65;;;4.00;80.90;;;;;;5058056;28;20033;-67
2021/12/12 03:24:54;;;;;;;12.90;8.60;;;4.00;80.90;;;;;;5053915;28;20063;-67
2021/12/12 03:27:22;;;;;;;13.88;8.50;;;4.00;80.90;;;;;;5054855;28;20407;-67
2021/12/12 03:29:49;;;;;;;13.57;9.02;;;4.00;81.70;;;;;;5058322;28;20033;-68
2021/12/12 03:32:19;;;;;;;12.95;8.63;;;4.00;80.90;;;;;;5056036;28;20060;-68
2021/12/12 03:34:53;;;;;;;12.93;9.30;;;4.00;80.90;;;;;;5053960;28;20038;-68
2021/12/12 03:37:23;;;;;;;13.68;9.38;;;4.00;80.80;;;;;;5055878;28;20029;-68
2021/12/12 03:39:53;;;;;;;14.60;9.73;;;4.00;80.90;;;;;;5054684;28;20036;-68
2021/12/12 03:42:26;;;;;;;12.45;8.85;;;4.00;80.80;;;;;;5054664;28;20386;-69
2021/12/12 03:44:53;;;;;;;12.60;8.75;;;4.00;80.70;;;;;;5053509;28;20112;-67
2021/12/12 03:47:19;;;;;;;14.23;8.55;;;4.00;80.80;;;;;;5053450;28;20028;-68
2021/12/12 03:49:45;;;;;;;12.73;8.88;;;4.00;80.80;;;;;;5055550;28;20428;-68
2021/12/12 03:52:14;;;;;;;14.20;9.68;;;4.10;80.90;;;;;;5056599;28;20048;-68
2021/12/12 03:54:40;;;;;;;13.27;8.65;;;4.10;80.90;;;;;;5055422;28;20048;-67
2021/12/12 03:57:07;;;;;;;13.63;9.27;;;4.10;80.90;;;;;;5054104;28;20040;-67
2021/12/12 03:59:33;;;;;;;16.00;9.60;;;4.10;80.70;;;;;;5037806;28;20029;-67
2021/12/12 04:02:00;;;;;;;14.35;9.45;;;4.10;80.70;;;;;;5053471;28;20111;-68
2021/12/12 04:04:31;;;;;;;19.00;10.65;;;4.10;80.70;;;;;;5052011;28;20152;-68
2021/12/12 04:06:57;;;;;;;15.23;10.32;;;4.10;80.70;;;;;;5055154;28;20048;-68
2021/12/12 04:09:24;;;;;;;15.35;10.15;;;4.10;80.70;;;;;;5055472;28;20120;-67
2021/12/12 04:11:56;;;;;;;17.02;11.40;;;4.10;80.70;;;;;;5051836;28;20070;-67
2021/12/12 04:14:23;;;;;;;15.82;10.82;;;4.10;80.80;;;;;;5055244;28;20044;-67
2021/12/12 04:16:53;;;;;;;16.80;10.98;;;4.00;80.70;;;;;;5052085;28;20403;-69
2021/12/12 04:19:19;;;;;;;16.17;10.75;;;4.00;80.80;;;;;;5056003;28;20033;-67
2021/12/12 04:21:46;;;;;;;16.90;11.05;;;4.00;80.90;;;;;;5057932;28;20696;-67
2021/12/12 04:24:20;;;;;;;17.27;11.20;;;4.00;80.90;;;;;;5054632;28;20119;-66
2021/12/12 04:26:46;;;;;;;17.08;10.48;;;4.00;80.90;;;;;;5054215;28;20039;-66
2021/12/12 04:29:24;;;;;;;17.38;10.23;;;4.00;81.00;;;;;;5056903;28;21191;-66
2021/12/12 04:31:54;;;;;;;17.45;11.20;;;4.00;81.00;;;;;;5057915;28;20392;-67
2021/12/12 04:34:23;;;;;;;17.10;11.48;;;4.10;81.10;;;;;;5057292;28;20037;-66
2021/12/12 04:36:50;;;;;;;19.23;11.20;;;4.10;81.00;;;;;;5056099;28;20059;-66
2021/12/12 04:39:18;;;;;;;17.30;10.85;;;4.10;80.90;;;;;;5057545;28;20121;-67
2021/12/12 04:41:46;;;;;;;18.98;11.13;;;4.10;80.90;;;;;;5054321;28;20029;-66
2021/12/12 04:44:12;;;;;;;15.95;10.55;;;4.10;80.90;;;;;;5056219;28;20107;-68
2021/12/12 04:49:56;;;;;;;79.40;35.22;;;4.10;80.80;;;;;;5052115;28;20094;-66
2021/12/12 04:52:43;;;;;;;49.58;27.30;;;4.10;80.80;;;;;;5054882;28;20118;-67
2021/12/12 04:55:25;;;;;;;45.63;24.65;;;4.10;80.70;;;;;;5053781;28;20036;-67
2021/12/12 04:57:57;;;;;;;23.92;15.23;;;4.10;80.80;;;;;;5054425;28;20060;-66
2021/12/12 05:00:29;;;;;;;19.80;12.48;;;4.10;80.80;;;;;;5054670;28;20385;-67
2021/12/12 05:03:05;;;;;;;20.17;12.70;;;4.10;80.80;;;;;;5052910;28;20531;-64
2021/12/12 05:06:02;;;;;;;20.38;11.75;;;4.10;80.70;;;;;;5053410;28;20073;-67
2021/12/12 05:08:39;;;;;;;29.63;21.60;;;4.10;80.70;;;;;;5037389;28;20045;-66
2021/12/12 05:11:13;;;;;;;22.73;15.13;;;4.10;80.70;;;;;;5052842;28;20076;-66
2021/12/12 05:13:51;;;;;;;19.63;13.63;;;4.10;80.70;;;;;;5053030;28;20043;-66
2021/12/12 05:16:26;;;;;;;19.30;12.50;;;4.10;80.70;;;;;;5055981;28;20153;-66
2021/12/12 05:19:01;;;;;;;24.13;17.40;;;4.10;80.70;;;;;;5051342;28;20049;-67
2021/12/12 05:21:31;;;;;;;;;;;4.10;80.70;;;;;;5056145;28;20067;-67
2021/12/12 05:24:00;;;;;;;19.60;12.88;;;4.10;80.70;;;;;;5054444;28;19949;-69
2021/12/12 05:26:32;;;;;;;19.77;13.25;;;4.10;80.60;;;;;;5053505;28;20143;-66
2021/12/12 05:29:03;;;;;;;18.40;11.77;;;4.10;80.60;;;;;;5055333;28;20043;-66
2021/12/12 05:31:30;;;;;;;15.25;9.45;;;4.10;80.60;;;;;;5055119;28;20029;-66
2021/12/12 05:33:56;;;;;;;18.33;11.60;;;4.10;80.40;;;;;;5055146;28;20040;-66
2021/12/12 05:36:23;;;;;;;16.45;10.13;;;4.00;80.40;;;;;;5051417;28;20340;-68
2021/12/12 05:38:50;;;;;;;29.40;17.63;;;4.00;80.40;;;;;;5052845;28;20044;-69
2021/12/12 05:41:19;;;;;;;35.33;23.63;;;4.00;80.50;;;;;;5056353;28;20045;-64
2021/12/12 05:43:47;;;;;;;23.42;15.02;;;4.00;80.50;;;;;;5054975;28;20090;-68
2021/12/12 05:46:18;;;;;;;19.75;12.75;;;4.00;81.30;;;;;;5054361;28;20491;-68
2021/12/12 05:48:45;;;;;;;14.98;9.75;;;4.00;80.40;;;;;;5054700;28;20029;-69
2021/12/12 05:51:11;;;;;;;15.88;9.30;;;4.10;81.40;;;;;;5058825;28;20123;-67
2021/12/12 05:53:37;;;;;;;14.90;9.05;;;4.10;80.40;;;;;;5056089;28;20032;-68
2021/12/12 05:56:04;;;;;;;14.07;8.75;;;4.10;80.20;;;;;;5057336;28;20033;-67
2021/12/12 05:58:31;;;;;;;14.15;8.93;;;4.00;80.00;;;;;;5059912;28;20930;-67
2021/12/12 06:01:07;;;;;;;13.48;8.25;;;4.00;79.90;;;;;;5059312;28;20029;-67
2021/12/12 06:03:37;;;;;;;13.77;8.55;;;4.00;79.70;;;;;;5056656;28;20085;-68
2021/12/12 06:06:06;;;;;;;13.50;8.57;;;4.00;79.50;;;;;;5054858;28;20051;-67
2021/12/12 06:08:33;;;;;;;13.38;8.32;;;4.00;79.30;;;;;;5058261;28;20127;-68
2021/12/12 06:10:59;;;;;;;14.45;9.15;;;3.90;79.20;;;;;;5057000;28;20064;-67
2021/12/12 06:13:25;;;;;;;12.27;8.52;;;3.90;79.30;;;;;;5058949;28;20563;-67
2021/12/12 06:15:53;;;;;;;14.48;9.13;;;3.90;79.30;;;;;;5059939;28;20036;-68
2021/12/12 06:18:22;;;;;;;15.00;9.25;;;3.90;79.30;;;;;;5041830;28;20033;-67
2021/12/12 06:20:48;;;;;;;14.13;9.43;;;3.80;79.30;;;;;;5059109;28;20040;-67
2021/12/12 06:23:16;;;;;;;13.75;9.40;;;3.80;79.30;;;;;;5059207;28;20037;-67
2021/12/12 06:25:42;;;;;;;13.50;8.90;;;3.80;79.30;;;;;;5059259;28;20060;-68
2021/12/12 06:28:14;;;;;;;12.85;8.38;;;3.80;79.20;;;;;;5058556;28;20114;-67
2021/12/12 06:30:41;;;;;;;13.27;8.32;;;3.70;79.00;;;;;;5054174;28;20033;-67
2021/12/12 06:33:06;;;;;;;13.38;8.50;;;3.70;79.00;;;;;;5055057;28;20044;-68
2021/12/12 06:35:33;;;;;;;9.73;7.07;;;3.70;79.00;;;;;;5054099;28;20070;-67
2021/12/12 06:38:04;;;;;;;10.95;7.85;;;3.60;78.70;;;;;;5057322;28;20029;-68
2021/12/12 06:40:30;;;;;;;13.63;9.57;;;3.60;78.80;;;;;;5058029;28;20503;-68
2021/12/12 06:42:58;;;;;;;12.63;10.90;;;3.60;78.80;;;;;;5054090;28;20082;-67
2021/12/12 06:45:24;;;;;;;8.25;6.47;;;3.50;78.80;;;;;;5056109;28;20393;-67
2021/12/12 06:47:50;;;;;;;8.45;6.15;;;3.50;79.00;;;;;;5056177;28;20048;-68
2021/12/12 06:50:18;;;;;;;8.32;6.00;;;3.50;79.00;;;;;;5054761;28;20037;-68
2021/12/12 06:52:45;;;;;;;7.10;4.88;;;3.40;79.10;;;;;;5055674;28;20029;-67
2021/12/12 06:55:11;;;;;;;10.52;6.88;;;3.40;79.20;;;;;;5056524;28;20033;-68
2021/12/12 06:57:38;;;;;;;7.85;5.47;;;3.40;79.30;;;;;;5055558;28;20061;-67
2021/12/12 07:00:08;;;;;;;7.40;5.03;;;3.30;79.30;;;;;;5054935;28;20033;-67
2021/12/12 07:02:34;;;;;;;7.50;5.07;;;3.30;79.50;;;;;;5049411;28;20032;-67
2021/12/12 07:04:59;;;;;;;6.68;4.65;;;3.30;79.70;;;;;;5056525;28;20059;-66
2021/12/12 07:07:27;;;;;;;8.50;5.78;;;3.30;79.80;;;;;;5052412;28;20628;-68
2021/12/12 07:09:52;;;;;;;7.35;5.00;;;3.30;79.90;;;;;;5052875;28;20036;-67
2021/12/12 07:12:23;;;;;;;7.70;4.57;;;3.30;79.90;;;;;;5051592;28;20031;-67
2021/12/12 07:14:52;;;;;;;7.90;4.80;;;3.30;80.00;;;;;;5050804;28;20089;-68
2021/12/12 07:17:18;;;;;;;6.72;4.70;;;3.20;80.00;;;;;;5051364;28;21300;-68
2021/12/12 07:19:44;;;;;;;11.07;5.28;;;3.20;80.10;;;;;;5054776;28;20037;-67
2021/12/12 07:22:10;;;;;;;8.60;4.85;;;3.20;80.20;;;;;;5055554;28;20044;-67
2021/12/12 07:24:37;;;;;;;9.80;5.10;;;3.20;80.20;;;;;;5056850;28;20052;-66
2021/12/12 07:27:03;;;;;;;6.95;4.45;;;3.20;80.20;;;;;;5058422;28;20083;-67
2021/12/12 07:29:29;;;;;;;6.30;4.57;;;3.20;80.10;;;;;;5055388;28;20052;-67
2021/12/12 07:31:57;;;;;;;5.45;4.43;;;3.20;80.20;;;;;;5055955;28;20028;-67
2021/12/12 07:34:24;;;;;;;15.43;9.88;;;3.20;80.10;;;;;;5056042;28;20029;-67
2021/12/12 07:36:55;;;;;;;10.43;7.63;;;3.20;80.20;;;;;;5055492;28;20597;-67
2021/12/12 07:39:22;;;;;;;13.32;8.35;;;3.20;80.20;;;;;;5056310;28;20025;-67
2021/12/12 07:41:51;;;;;;;16.45;10.38;;;3.20;80.20;;;;;;5055049;28;20029;-67
2021/12/12 07:44:21;;;;;;;13.25;8.18;;;3.20;80.20;;;;;;5054961;28;20120;-67
2021/12/12 07:46:48;;;;;;;12.35;9.02;;;3.20;80.20;;;;;;5055076;28;20032;-66
2021/12/12 07:49:19;;;;;;;14.75;9.27;;;3.20;80.20;;;;;;5055201;28;20044;-69
2021/12/12 07:51:45;;;;;;;10.43;7.22;;;3.20;80.20;;;;;;5054894;28;20056;-68
2021/12/12 07:54:11;;;;;;;8.15;5.50;;;3.20;80.20;;;;;;5054246;28;20071;-68
2021/12/12 07:56:39;;;;;;;9.45;5.95;;;3.20;80.10;;;;;;5052949;28;20033;-67
2021/12/12 07:59:07;;;;;;;13.90;6.85;;;3.20;80.00;;;;;;5055204;28;20615;-67
2021/12/12 08:01:33;;;;;;;8.48;6.10;;;3.20;80.10;;;;;;5051631;28;20032;-68
2021/12/12 08:03:59;;;;;;;9.75;6.50;;;3.20;80.10;;;;;;5049460;28;20040;-68
2021/12/12 08:06:26;;;;;;;11.27;6.22;;;3.20;80.20;;;;;;5053274;28;20503;-66
2021/12/12 08:08:52;;;;;;;8.43;5.85;;;3.20;80.20;;;;;;5053607;28;20039;-67
2021/12/12 08:11:22;;;;;;;16.48;7.50;;;3.20;80.20;;;;;;5052880;28;20132;-68
2021/12/12 08:13:49;;;;;;;11.10;8.40;;;3.20;80.20;;;;;;5054857;28;20033;-67
2021/12/12 08:16:15;;;;;;;14.27;10.50;;;3.20;80.30;;;;;;5053953;28;21654;-69
2021/12/12 08:18:41;;;;;;;10.48;8.00;;;3.20;80.40;;;;;;5055502;28;20515;-67
2021/12/12 08:21:08;;;;;;;10.27;7.35;;;3.20;80.40;;;;;;5057167;28;20033;-68
2021/12/12 08:23:34;;;;;;;10.75;7.00;;;3.30;80.50;;;;;;5056221;28;20126;-68
2021/12/12 08:26:02;;;;;;;9.85;6.30;;;3.20;80.40;;;;;;5056993;28;20056;-68
2021/12/12 08:28:29;;;;;;;10.35;7.10;;;3.30;80.30;;;;;;5050624;28;20029;-68
2021/12/12 08:30:56;;;;;;;10.27;7.43;;;3.20;80.20;;;;;;5057024;28;20043;-68
2021/12/12 08:33:23;;;;;;;11.93;8.48;;;3.30;80.40;;;;;;5055302;28;20044;-68
2021/12/12 08:35:50;;;;;;;13.02;7.95;;;3.30;81.30;;;;;;5057036;28;20143;-67
2021/12/12 08:38:17;;;;;;;10.85;7.38;;;3.30;80.50;;;;;;5055637;28;20040;-68
2021/12/12 08:40:48;;;;;;;10.52;7.75;;;3.30;80.50;;;;;;5054352;28;20145;-68
2021/12/12 08:43:16;;;;;;;10.45;7.32;;;3.30;80.40;;;;;;5049639;28;20021;-67
2021/12/12 08:45:48;;;;;;;12.25;6.93;;;3.40;80.40;;;;;;5056413;28;20025;-69
2021/12/12 08:48:16;;;;;;;8.65;6.18;;;3.40;80.30;;;;;;5054104;28;20029;-69
2021/12/12 08:50:43;;;;;;;9.57;6.10;;;3.40;80.20;;;;;;5055177;28;20067;-67
2021/12/12 08:53:10;;;;;;;10.82;6.50;;;3.50;80.20;;;;;;5055212;28;20033;-68
2021/12/12 08:55:42;;;;;;;8.70;5.95;;;3.50;80.20;;;;;;5054334;28;20080;-67
2021/12/12 08:58:15;;;;;;;10.27;6.72;;;3.60;80.20;;;;;;5055419;28;20032;-69
2021/12/12 09:01:10;;;;;;;9.88;7.65;;;3.60;80.10;;;;;;5049941;28;20509;-66
2021/12/12 09:03:49;;;;;;;11.05;6.70;;;3.60;80.00;;;;;;5056539;28;20060;-67
2021/12/12 09:06:18;;;;;;;8.23;5.82;;;3.60;80.00;;;;;;5057423;28;20450;-65
2021/12/12 09:09:00;;;;;;;6.65;5.28;;;3.70;80.00;;;;;;5053686;28;20579;-67
2021/12/12 09:11:37;;;;;;;9.27;5.15;;;3.70;79.90;;;;;;5052835;28;20040;-67
2021/12/12 09:14:10;;;;;;;7.10;5.55;;;3.70;79.80;;;;;;5055940;28;20043;-67
2021/12/12 09:17:02;;;;;;;7.65;6.18;;;3.70;79.70;;;;;;5052674;28;20037;-67
2021/12/12 09:19:41;;;;;;;9.07;6.22;;;3.70;79.80;;;;;;5047221;28;20425;-67
2021/12/12 09:22:46;;;;;;;8.77;5.15;;;3.70;79.70;;;;;;5052599;28;20037;-67
2021/12/12 09:25:15;;;;;;;8.02;5.43;;;3.80;79.70;;;;;;5009038;28;20082;-68
2021/12/12 09:27:52;;;;;;;6.97;5.20;;;3.80;79.90;;;;;;5058480;28;20075;-66
2021/12/12 09:30:21;;;;;;;11.20;6.95;;;3.80;79.80;;;;;;5058395;28;20040;-67
2021/12/12 09:33:18;;;;;;;10.75;6.38;;;3.80;79.90;;;;;;5057497;28;20090;-68
2021/12/12 09:35:59;;;;;;;8.95;6.15;;;3.90;79.90;;;;;;5058284;28;20024;-67
2021/12/12 09:38:48;;;;;;;9.55;5.25;;;3.90;80.00;;;;;;5058242;28;20037;-68
2021/12/12 09:41:14;;;;;;;9.32;5.93;;;4.00;80.00;;;;;;5054950;28;20029;-67
2021/12/12 09:43:58;;;;;;;7.25;5.35;;;4.00;80.20;;;;;;5058895;28;20396;-67
2021/12/12 09:47:00;;;;;;;6.75;5.25;;;4.10;80.00;;;;;;5057891;28;20022;-68
2021/12/12 09:53:20;;;;;;;10.05;5.97;;;4.10;79.70;;;;;;5056569;28;20602;-68
2021/12/12 09:56:07;;;;;;;11.35;7.13;;;4.20;79.60;;;;;;5057132;28;20031;-68
2021/12/12 09:58:57;;;;;;;7.50;6.32;;;4.30;79.50;;;;;;5056272;28;20060;-67
2021/12/12 10:01:25;;;;;;;7.95;5.00;;;4.30;79.50;;;;;;5057173;28;20071;-68
2021/12/12 10:04:23;;;;;;;9.13;6.07;;;4.30;79.30;;;;;;5057119;28;20021;-68
2021/12/12 10:07:04;;;;;;;6.88;5.85;;;4.40;79.00;;;;;;5058322;28;20033;-68
2021/12/12 10:09:34;;;;;;;5.70;4.80;;;4.40;79.20;;;;;;5058910;28;20029;-68
2021/12/12 10:12:16;;;;;;;8.07;5.60;;;4.40;79.10;;;;;;5056223;28;20033;-68
2021/12/12 10:14:59;;;;;;;8.13;6.55;;;4.40;78.80;;;;;;5057804;28;20074;-69
2021/12/12 10:17:43;;;;;;;7.75;5.70;;;4.30;78.70;;;;;;5051738;28;20109;-68
2021/12/12 10:20:11;;;;;;;8.48;5.43;;;4.30;78.80;;;;;;5057115;28;20495;-68
2021/12/12 10:22:52;;;;;;;10.77;6.28;;;4.30;79.00;;;;;;5050611;28;20091;-67
2021/12/12 10:25:26;;;;;;;8.27;5.50;;;4.40;79.20;;;;;;5057416;28;20025;-68
2021/12/12 10:27:58;;;;;;;8.40;5.67;;;4.40;79.20;;;;;;5056512;28;20059;-68
2021/12/12 10:30:28;;;;;;;9.30;6.13;;;4.40;79.10;;;;;;5057302;28;20041;-66
2021/12/12 10:33:12;;;;;;;12.93;6.00;;;4.40;79.20;;;;;;5056580;28;20071;-69
2021/12/12 10:35:53;;;;;;;8.10;5.80;;;4.40;79.00;;;;;;5055991;28;20028;-67
2021/12/12 10:38:20;;;;;;;8.68;5.90;;;4.40;78.90;;;;;;5057071;28;20063;-67
2021/12/12 10:40:55;;;;;;;7.75;6.07;;;4.40;79.10;;;;;;5059343;28;20036;-67
2021/12/12 10:43:30;;;;;;;9.38;5.68;;;4.50;79.00;;;;;;5062016;28;20024;-68
2021/12/12 10:46:07;;;;;;;8.10;6.10;;;4.50;79.00;;;;;;5060143;28;20036;-66
2021/12/12 10:49:13;;;;;;;9.30;5.95;;;4.50;79.00;;;;;;5058974;28;20444;-67
2021/12/12 10:51:45;;;;;;;10.05;6.25;;;4.50;78.80;;;;;;5058787;28;20039;-67
2021/12/12 10:54:22;;;;;;;8.35;6.03;;;4.50;79.00;;;;;;5061298;28;20032;-68
2021/12/12 10:56:55;;;;;;;9.18;6.47;;;4.50;79.00;;;;;;5058746;28;20380;-67
2021/12/12 10:59:26;;;;;;;7.93;6.20;;;4.60;79.10;;;;;;5058247;28;20112;-66
2021/12/12 11:02:06;;;;;;;11.18;6.72;;;4.60;79.20;;;;;;5058043;28;20400;-67
2021/12/12 11:04:42;;;;;;;10.93;6.75;;;4.60;79.10;;;;;;5059513;28;20033;-67
2021/12/12 11:07:27;;;;;;;7.85;6.05;;;4.60;79.10;;;;;;5059699;28;20162;-67
2021/12/12 11:10:17;;;;;;;9.32;6.25;;;4.60;79.00;;;;;;5059084;28;20170;-67
2021/12/12 11:12:51;;;;;;;9.55;6.50;;;4.70;79.00;;;;;;5057696;28;20020;-67
2021/12/12 11:15:24;;;;;;;;;;;4.70;79.20;;;;;;5061562;28;20033;-67
2021/12/12 11:18:08;;;;;;;9.52;7.00;;;4.70;79.10;;;;;;5060750;28;20019;-66
2021/12/12 11:20:39;;;;;;;10.77;6.47;;;4.80;79.20;;;;;;5059883;28;20028;-68
2021/12/12 11:23:12;;;;;;;10.68;6.78;;;4.80;79.40;;;;;;5061470;28;20036;-67
2021/12/12 11:25:50;;;;;;;9.38;7.18;;;4.90;79.30;;;;;;5060830;28;20021;-67
2021/12/12 11:28:48;;;;;;;10.48;6.40;;;4.90;79.30;;;;;;5059634;28;20033;-67
2021/12/12 11:31:22;;;;;;;9.65;6.28;;;4.90;78.80;;;;;;5059435;28;20033;-68
2021/12/12 11:33:50;;;;;;;7.97;5.25;;;5.00;78.80;;;;;;5055934;28;20043;-66
2021/12/12 11:36:20;;;;;;;9.57;6.70;;;5.00;78.80;;;;;;5059737;28;20127;-66
2021/12/12 11:38:51;;;;;;;7.93;6.25;;;5.00;78.40;;;;;;5058558;28;20155;-67
2021/12/12 11:41:42;;;;;;;8.50;5.60;;;5.10;79.20;;;;;;5048505;28;20048;-66
2021/12/12 11:44:29;;;;;;;8.30;5.70;;;5.10;77.90;;;;;;5055570;28;20041;-67
2021/12/12 11:47:25;;;;;;;8.85;5.70;;;5.10;78.00;;;;;;5056375;28;20569;-68
2021/12/12 11:50:01;;;;;;;7.70;5.53;;;5.20;78.10;;;;;;5057914;28;20028;-67
2021/12/12 11:52:50;;;;;;;8.35;5.70;;;5.20;78.10;;;;;;5057541;28;20025;-66
2021/12/12 11:55:27;;;;;;;8.52;5.70;;;5.20;77.80;;;;;;5044926;28;20079;-67
2021/12/12 11:58:04;;;;;;;9.30;5.95;;;5.30;78.10;;;;;;5057280;28;20039;-65
2021/12/12 12:00:36;;;;;;;9.10;6.50;;;5.30;78.30;;;;;;5055938;28;20029;-66
2021/12/12 12:03:14;;;;;;;8.60;6.00;;;5.30;78.00;;;;;;5054200;28;20036;-67
2021/12/12 12:06:02;;;;;;;8.48;6.25;;;5.40;77.90;;;;;;5058050;28;20032;-66
2021/12/12 12:09:03;;;;;;;10.00;6.28;;;5.40;77.40;;;;;;5052275;28;20039;-67
2021/12/12 12:11:55;;;;;;;8.02;5.80;;;5.40;77.50;;;;;;5046407;28;20777;-66
2021/12/12 12:14:51;;;;;;;10.50;6.50;;;5.50;77.40;;;;;;5059083;28;20037;-67
2021/12/12 12:17:38;;;;;;;8.82;6.00;;;5.50;77.40;;;;;;5054731;28;20582;-66
2021/12/12 12:20:36;;;;;;;13.65;8.27;;;5.60;77.80;;;;;;5057992;28;20629;-66
2021/12/12 12:23:06;;;;;;;10.98;7.07;;;5.60;77.60;;;;;;4973894;28;20038;-66
2021/12/12 12:26:50;;;;;;;26.85;14.88;;;5.60;77.30;;;;;;5057216;28;20028;-67
2021/12/12 12:28:17;;;;;;;11.90;8.57;;;5.60;77.40;;;;;;5055807;28;20044;-67
2021/12/12 12:31:19;;;;;;;10.95;7.05;;;5.60;77.50;;;;;;5055918;28;20037;-66
2021/12/12 12:34:27;;;;;;;9.15;6.25;;;5.70;77.10;;;;;;5056238;28;20039;-66
2021/12/12 12:37:23;;;;;;;9.07;6.80;;;5.70;76.90;;;;;;5057037;28;20032;-67
2021/12/12 12:40:23;;;;;;;11.40;7.78;;;5.70;77.00;;;;;;5057455;28;20109;-66
2021/12/12 12:43:26;;;;;;;10.82;6.75;;;5.70;76.80;;;;;;5054583;28;20492;-67
2021/12/12 12:46:29;;;;;;;10.63;7.43;;;5.70;76.90;;;;;;5056921;28;20039;-67
2021/12/12 12:49:25;;;;;;;11.30;7.30;;;5.70;76.90;;;;;;5057622;28;20157;-66
2021/12/12 12:52:18;;;;;;;11.68;6.55;;;5.70;76.70;;;;;;5060258;28;20561;-66
2021/12/12 12:55:12;;;;;;;10.70;6.35;;;5.80;76.60;;;;;;5058939;28;20063;-66
2021/12/12 12:57:41;;;;;;;13.33;7.00;;;5.80;76.90;;;;;;5021950;28;20595;-64
2021/12/12 13:00:19;;;;;;;8.68;6.38;;;5.80;77.80;;;;;;5062116;28;20036;-66
2021/12/12 13:03:09;;;;;;;16.42;7.65;;;5.80;76.60;;;;;;5061618;28;20107;-67
2021/12/12 13:06:01;;;;;;;14.68;8.45;;;5.80;76.80;;;;;;5064521;28;20091;-66
2021/12/12 13:08:45;;;;;;;9.73;6.22;;;5.90;76.30;;;;;;5063201;28;20451;-67
2021/12/12 13:11:15;;;;;;;8.95;6.43;;;5.90;76.30;;;;;;5060280;28;20511;-64
2021/12/12 13:14:07;;;;;;;11.02;7.28;;;5.90;76.70;;;;;;5060009;28;20040;-66
2021/12/12 13:16:48;;;;;;;11.70;6.90;;;5.80;76.30;;;;;;5060950;28;20033;-66
2021/12/12 13:19:51;;;;;;;11.57;7.38;;;5.90;76.60;;;;;;5063455;28;20037;-66
2021/12/12 13:22:26;;;;;;;16.67;8.57;;;5.90;76.40;;;;;;5062722;28;20407;-66
2021/12/12 13:25:03;;;;;;;13.38;8.32;;;5.90;77.10;;;;;;5057481;28;20533;-67
2021/12/12 13:28:09;;;;;;;10.15;6.35;;;5.80;76.20;;;;;;5060562;28;20028;-65
2021/12/12 13:30:41;;;;;;;9.50;6.40;;;5.80;76.10;;;;;;5060336;28;20044;-66
2021/12/12 13:33:31;;;;;;;7.93;5.97;;;5.80;76.60;;;;;;5061815;28;20581;-67
2021/12/12 13:36:08;;;;;;;7.72;5.55;;;5.80;75.90;;;;;;5023366;28;20036;-67
2021/12/12 13:38:42;;;;;;;7.32;5.53;;;5.80;76.40;;;;;;5059136;28;20029;-67
2021/12/12 13:41:32;;;;;;;10.27;6.85;;;5.80;76.40;;;;;;5062237;28;20033;-67
2021/12/12 13:44:14;;;;;;;9.77;6.38;;;5.70;76.20;;;;;;5061849;28;20033;-67
2021/12/12 13:46:50;;;;;;;9.35;6.70;;;5.80;76.50;;;;;;5060970;28;20563;-67
2021/12/12 13:49:21;;;;;;;8.65;6.28;;;5.80;76.60;;;;;;5061731;28;20636;-67